createdAt,value
2024-01-15T00:00:01.146Z,7.00
2024-01-15T00:05:05.811Z,7.27
2024-01-15T00:10:07.956Z,6.90
2024-01-15T00:15:10.095Z,6.53
2024-01-15T00:20:12.463Z,6.50
2024-01-15T00:25:14.573Z,6.40
2024-01-15T00:30:17.297Z,7.00
2024-01-15T00:35:19.701Z,6.43
2024-01-15T00:40:21.497Z,7.17
2024-01-15T00:45:23.801Z,8.50
2024-01-15T00:50:26.287Z,8.13
2024-01-15T00:55:28.422Z,7.37
2024-01-15T01:00:30.697Z,7.70
2024-01-15T01:05:32.921Z,5.80
2024-01-15T01:10:35.222Z,7.60
2024-01-15T01:15:38.124Z,8.20
2024-01-15T01:20:40.202Z,7.67
2024-01-15T01:25:42.889Z,9.33
2024-01-15T01:30:44.609Z,7.70
2024-01-15T01:35:48.174Z,6.23
2024-01-15T01:40:50.294Z,9.43
2024-01-15T01:45:54.289Z,5.23
2024-01-15T01:50:57.077Z,9.15
2024-01-15T01:55:58.952Z,8.47
2024-01-15T02:01:01.365Z,9.20
2024-01-15T02:06:03.783Z,7.83
2024-01-15T02:11:06.128Z,9.83
2024-01-15T02:16:08.391Z,8.47
2024-01-15T02:21:10.535Z,8.43
2024-01-15T02:26:12.935Z,7.78
2024-01-15T02:31:15.359Z,8.87
2024-01-15T02:36:18.514Z,7.80
2024-01-15T02:41:21.773Z,9.13
2024-01-15T02:46:23.564Z,9.07
2024-01-15T02:51:25.768Z,10.20
2024-01-15T02:56:28.206Z,7.33
2024-01-15T03:01:30.419Z,6.60
2024-01-15T03:06:32.659Z,8.70
2024-01-15T03:11:34.753Z,7.47
2024-01-15T03:16:36.859Z,6.53
2024-01-15T03:21:39.295Z,7.23
2024-01-15T03:26:42.339Z,5.32
2024-01-15T03:31:45.186Z,8.20
2024-01-15T03:36:54.845Z,6.13
2024-01-15T03:41:56.719Z,6.00
2024-01-15T03:46:59.193Z,7.47
2024-01-15T03:52:04.958Z,8.40
2024-01-15T03:57:08.319Z,10.55
2024-01-15T04:02:10.625Z,7.77
2024-01-15T04:07:13.444Z,9.52
2024-01-15T04:12:18.150Z,6.63
2024-01-15T04:17:24.371Z,9.45
2024-01-15T04:22:27.410Z,8.90
2024-01-15T04:27:29.686Z,10.00
2024-01-15T04:32:33.130Z,8.27
2024-01-15T04:37:35.545Z,9.80
2024-01-15T04:42:37.767Z,8.48
2024-01-15T04:47:43.642Z,10.63
2024-01-15T04:53:13.277Z,7.68
2024-01-15T04:58:15.712Z,9.20
2024-01-15T05:03:18.981Z,10.90
2024-01-15T05:08:22.526Z,6.72
2024-01-15T05:13:24.701Z,9.73
2024-01-15T05:18:29.126Z,9.07
2024-01-15T05:23:33.676Z,8.18
2024-01-15T05:28:36.744Z,8.20
2024-01-15T05:33:41.274Z,8.77
2024-01-15T05:38:44.193Z,10.80
2024-01-15T05:43:52.585Z,11.13
2024-01-15T05:48:54.854Z,9.27
2024-01-15T05:53:57.448Z,7.25
2024-01-15T05:59:00.113Z,7.28
2024-01-15T06:04:02.604Z,10.95
2024-01-15T06:09:04.968Z,8.77
2024-01-15T06:14:07.208Z,8.68
2024-01-15T06:19:09.698Z,6.72
2024-01-15T06:24:16.977Z,11.15
2024-01-15T06:29:26.297Z,8.43
2024-01-15T06:34:28.625Z,11.25
2024-01-15T06:39:33.410Z,7.97
2024-01-15T06:44:35.831Z,7.75
2024-01-15T06:49:38.463Z,9.27
2024-01-15T06:54:45.250Z,10.23
2024-01-15T06:59:57.618Z,10.43
2024-01-15T07:05:00.409Z,6.35
2024-01-15T07:10:02.744Z,11.02
2024-01-15T07:15:06.781Z,9.27
2024-01-15T07:20:13.701Z,10.55
2024-01-15T07:25:16.277Z,7.93
2024-01-15T07:30:27.502Z,10.00
2024-01-15T07:35:29.803Z,8.63
2024-01-15T07:40:32.221Z,9.50
2024-01-15T07:45:34.506Z,8.82
2024-01-15T07:50:36.861Z,10.30
2024-01-15T07:55:40.702Z,10.25
2024-01-15T08:00:42.865Z,11.35
2024-01-15T08:05:45.358Z,10.00
2024-01-15T08:10:47.549Z,10.90
2024-01-15T08:15:53.153Z,9.55
2024-01-15T08:20:58.930Z,7.25
2024-01-15T08:26:01.475Z,7.68
2024-01-15T08:31:03.749Z,9.88
2024-01-15T08:36:06.129Z,11.13
2024-01-15T08:41:08.394Z,8.40
2024-01-15T08:46:11.530Z,10.32
2024-01-15T08:51:14.071Z,9.45
2024-01-15T08:56:20.497Z,10.05
2024-01-15T09:01:27.796Z,10.55
2024-01-15T09:06:36.695Z,9.25
2024-01-15T09:11:41.884Z,8.37
2024-01-15T09:16:44.173Z,6.70
2024-01-15T09:21:46.788Z,7.75
2024-01-15T09:26:49.489Z,7.25
2024-01-15T09:31:59.025Z,7.75
2024-01-15T09:37:03.790Z,8.32
2024-01-15T09:42:06.879Z,8.05
2024-01-15T09:47:09.444Z,6.57
2024-01-15T09:52:12.449Z,9.18
2024-01-15T09:57:15.360Z,8.50
2024-01-15T10:02:21.105Z,8.48
2024-01-15T10:07:26.419Z,8.95
2024-01-15T10:12:29.656Z,6.43
2024-01-15T10:17:31.733Z,7.35
2024-01-15T10:22:34.960Z,7.45
2024-01-15T10:27:37.251Z,7.50
2024-01-15T10:32:40.831Z,6.13
2024-01-15T10:37:43.428Z,6.15
2024-01-15T10:42:46.161Z,7.82
2024-01-15T10:47:49.611Z,5.53
2024-01-15T10:52:55.830Z,6.10
2024-01-15T10:58:03.884Z,7.63
2024-01-15T11:03:09.472Z,8.90
2024-01-15T11:08:12.114Z,6.40
2024-01-15T11:13:14.475Z,5.45
2024-01-15T11:18:21.291Z,5.03
2024-01-15T11:23:30.570Z,7.00
2024-01-15T11:28:34.692Z,7.00
2024-01-15T11:33:37.419Z,5.85
2024-01-15T11:38:40.129Z,7.40
2024-01-15T11:43:42.494Z,7.15
2024-01-15T11:48:45.091Z,6.07
2024-01-15T11:53:47.037Z,7.43
2024-01-15T11:58:48.925Z,7.78
2024-01-15T12:03:52.821Z,5.90
2024-01-15T12:08:55.752Z,6.13
2024-01-15T12:14:00.498Z,4.70
2024-01-15T12:19:03.337Z,5.90
2024-01-15T12:24:18.060Z,6.60
2024-01-15T12:29:20.548Z,5.15
2024-01-15T12:34:23.364Z,7.15
2024-01-15T12:39:30.369Z,4.05
2024-01-15T12:44:32.937Z,4.80
2024-01-15T12:49:34.802Z,4.20
2024-01-15T12:54:37.814Z,4.10
2024-01-15T12:59:40.489Z,4.15
2024-01-15T13:04:43.422Z,2.97
2024-01-15T13:09:48.181Z,3.13
2024-01-15T13:14:50.651Z,2.10
2024-01-15T13:19:53.036Z,2.35
2024-01-15T13:24:57.723Z,1.52
2024-01-15T13:30:00.529Z,2.10
2024-01-15T13:35:05.546Z,1.73
2024-01-15T13:40:10.475Z,1.83
2024-01-15T13:45:12.845Z,1.33
2024-01-15T13:50:15.220Z,1.48
2024-01-15T13:55:17.643Z,1.27
2024-01-15T14:00:20.142Z,1.92
2024-01-15T14:05:24.026Z,1.45
2024-01-15T14:10:28.287Z,1.42
2024-01-15T14:15:39.945Z,1.35
2024-01-15T14:20:42.579Z,1.40
2024-01-15T14:25:44.995Z,1.02
2024-01-15T14:30:47.315Z,1.60
2024-01-15T14:35:50.822Z,2.00
2024-01-15T14:40:57.981Z,1.70
2024-01-15T14:46:04.170Z,1.38
2024-01-15T14:51:08.450Z,1.63
2024-01-15T14:56:16.742Z,1.98
2024-01-15T15:01:20.756Z,1.10
2024-01-15T15:06:23.592Z,1.30
2024-01-15T15:11:32.382Z,1.48
2024-01-15T15:16:35.373Z,1.60
2024-01-15T15:21:37.825Z,1.38
2024-01-15T15:26:39.945Z,1.50
2024-01-15T15:31:44.504Z,1.70
2024-01-15T15:36:46.800Z,2.03
2024-01-15T15:41:49.263Z,2.13
2024-01-15T15:46:52.462Z,1.73
2024-01-15T15:51:55.440Z,1.33
2024-01-15T15:57:07.362Z,1.80
2024-01-15T16:02:09.695Z,1.60
2024-01-15T16:07:14.721Z,2.15
2024-01-15T16:12:25.349Z,1.95
2024-01-15T16:23:15.907Z,2.08
2024-01-15T16:23:44.282Z,2.05
2024-01-15T16:28:14.985Z,1.50
2024-01-15T16:33:19.314Z,1.48
2024-01-15T16:38:21.630Z,1.40
2024-01-15T16:43:24.134Z,1.17
2024-01-15T16:48:27.350Z,1.75
2024-01-15T16:53:29.864Z,1.88
2024-01-15T17:03:57.637Z,2.00
2024-01-15T17:09:03.696Z,0.95
2024-01-15T17:14:09.733Z,1.20
2024-01-15T17:19:11.729Z,3.03
2024-01-15T17:24:20.798Z,2.13
2024-01-15T17:29:24.203Z,1.20
2024-01-15T17:34:32.470Z,2.00
2024-01-15T17:39:41.922Z,1.27
2024-01-15T17:44:45.881Z,2.15
2024-01-15T17:49:56.984Z,1.25
2024-01-15T17:54:58.942Z,1.88
2024-01-15T18:00:03.529Z,1.70
2024-01-15T18:05:10.639Z,1.88
2024-01-15T18:10:13.062Z,2.45
2024-01-15T18:15:15.575Z,1.90
2024-01-15T18:20:18.201Z,2.60
2024-01-15T18:25:23.954Z,2.35
2024-01-15T18:30:26.659Z,2.75
2024-01-15T18:35:33.086Z,2.35
2024-01-15T18:40:46.034Z,2.35
2024-01-15T18:45:58.100Z,2.35
2024-01-15T18:51:03.139Z,4.18
2024-01-15T18:56:15.003Z,4.00
2024-01-15T19:01:24.273Z,3.47
2024-01-15T19:06:26.700Z,2.92
2024-01-15T19:11:32.488Z,2.97
2024-01-15T19:16:40.737Z,3.40
2024-01-15T19:21:51.181Z,3.88
2024-01-15T19:26:54.384Z,3.30
2024-01-15T19:32:03.009Z,2.90
2024-01-15T19:37:09.856Z,2.58
2024-01-15T19:42:13.119Z,2.95
2024-01-15T19:47:15.913Z,3.70
2024-01-15T19:52:18.891Z,4.25
2024-01-15T19:57:48.005Z,4.07
2024-01-15T20:02:52.797Z,3.70
2024-01-15T20:08:00.752Z,4.03
2024-01-15T20:13:15.596Z,3.75
2024-01-15T20:18:27.651Z,3.35
2024-01-15T20:28:52.895Z,4.25
2024-01-15T20:33:57.700Z,4.03
2024-01-15T20:39:04.881Z,4.45
2024-01-15T20:44:08.931Z,4.18
2024-01-15T20:49:11.967Z,2.88
2024-01-15T20:54:14.090Z,3.15
2024-01-15T20:59:16.586Z,3.38
2024-01-15T21:04:32.593Z,3.80
2024-01-15T21:09:35.059Z,3.83
2024-01-15T21:14:42.177Z,3.78
2024-01-15T21:19:44.800Z,4.03
2024-01-15T21:24:50.585Z,3.47
2024-01-15T21:29:53.001Z,4.18
2024-01-15T21:34:55.280Z,3.47
2024-01-15T21:40:03.823Z,4.60
2024-01-15T21:45:05.649Z,3.13
2024-01-15T21:55:33.864Z,4.13
2024-01-15T22:00:43.989Z,4.10
2024-01-15T22:05:46.461Z,4.60
2024-01-15T22:10:49.033Z,4.75
2024-01-15T22:15:51.640Z,3.65
2024-01-15T22:20:54.721Z,3.80
2024-01-15T22:25:57.299Z,4.30
2024-01-15T22:30:59.674Z,3.88
2024-01-15T22:36:01.847Z,4.15
2024-01-15T22:41:04.548Z,2.83
2024-01-15T22:46:07.388Z,3.35
2024-01-15T22:51:13.618Z,3.65
2024-01-15T22:56:18.227Z,2.55
2024-01-15T23:01:21.127Z,3.58
2024-01-15T23:06:24.784Z,2.90
2024-01-15T23:11:34.538Z,4.05
2024-01-15T23:16:38.046Z,3.63
2024-01-15T23:21:41.473Z,2.97
2024-01-15T23:26:43.981Z,3.47
2024-01-15T23:31:49.519Z,5.03
2024-01-15T23:36:52.139Z,4.35
2024-01-15T23:41:56.411Z,3.58
2024-01-15T23:47:00.075Z,5.03
2024-01-15T23:52:02.642Z,2.72
2024-01-15T23:57:05.588Z,4.15
